Time;durP1;ratioP1;P1;durP2;ratioP2;P2;SDS_P1;SDS_P2;PMS_P1;PMS_P2;Temp;Humidity;BMP_temperature;BMP_pressure;BME280_temperature;BME280_humidity;BME280_pressure;Samples;Min_cycle;Max_cycle;Signal;HPM_P1;HPM_P2
2023/01/23 00:01:19;;;;;;;18.60;9.77;;;5.20;76.30;;;;;;5114016;28;20038;-69
2023/01/23 00:03:44;;;;;;;16.77;10.87;;;5.10;76.30;;;;;;5126560;27;20127;-69
2023/01/23 00:06:13;;;;;;;15.30;9.13;;;5.20;76.40;;;;;;5095594;28;20107;-69
2023/01/23 00:08:41;;;;;;;18.13;10.23;;;5.20;76.40;;;;;;5115375;28;20342;-69
2023/01/23 00:11:09;;;;;;;16.97;9.53;;;5.10;76.40;;;;;;5113258;28;20060;-69
2023/01/23 00:13:35;;;;;;;17.47;9.30;;;5.20;76.50;;;;;;5110955;28;20031;-69
2023/01/23 00:16:13;;;;;;;17.93;9.83;;;5.20;76.50;;;;;;5113231;28;20052;-69
2023/01/23 00:18:39;;;;;;;16.40;8.80;;;5.20;77.20;;;;;;5112742;28;20316;-69
2023/01/23 00:21:07;;;;;;;18.07;10.20;;;5.20;76.50;;;;;;5114201;28;20414;-69
2023/01/23 00:23:33;;;;;;;19.83;10.83;;;5.20;76.60;;;;;;5113405;28;20050;-70
2023/01/23 00:26:09;;;;;;;17.90;10.40;;;5.20;76.60;;;;;;5114629;28;20476;-69
2023/01/23 00:28:36;;;;;;;20.80;10.97;;;5.20;76.70;;;;;;5114609;28;20019;-69
2023/01/23 00:31:06;;;;;;;18.17;11.07;;;5.20;76.70;;;;;;5116064;27;20027;-69
2023/01/23 00:33:32;;;;;;;16.97;10.67;;;5.20;76.70;;;;;;5108369;28;20080;-70
2023/01/23 00:35:59;;;;;;;20.70;11.63;;;5.20;76.70;;;;;;5113109;28;20015;-69
2023/01/23 00:38:24;;;;;;;22.97;10.90;;;5.20;76.80;;;;;;5113511;28;20035;-69
2023/01/23 00:40:50;;;;;;;20.40;10.23;;;5.20;76.80;;;;;;5115398;28;20040;-69
2023/01/23 00:43:16;;;;;;;15.70;10.27;;;5.20;76.80;;;;;;5101824;28;20108;-69
2023/01/23 00:45:42;;;;;;;17.73;10.30;;;5.20;76.80;;;;;;5110396;28;20062;-69
2023/01/23 00:48:08;;;;;;;18.77;9.97;;;5.20;76.80;;;;;;5111078;28;20020;-69
2023/01/23 00:50:33;;;;;;;20.10;10.13;;;5.20;76.90;;;;;;5114279;28;20088;-69
2023/01/23 00:52:59;;;;;;;19.37;10.53;;;5.20;76.90;;;;;;5113875;28;20452;-69
2023/01/23 00:55:25;;;;;;;21.70;11.30;;;5.20;76.90;;;;;;5113151;28;20033;-69
2023/01/23 00:57:51;;;;;;;18.63;10.90;;;5.20;76.90;;;;;;5123809;27;20106;-69
2023/01/23 01:00:17;;;;;;;18.70;9.87;;;5.20;76.90;;;;;;5114299;28;20547;-69
2023/01/23 01:02:43;;;;;;;18.50;10.30;;;5.20;76.90;;;;;;5112867;28;20038;-69
2023/01/23 01:05:08;;;;;;;19.87;10.27;;;5.20;76.90;;;;;;5112714;28;20102;-69
2023/01/23 01:07:34;;;;;;;16.70;10.90;;;5.10;76.90;;;;;;5112479;28;20085;-69
2023/01/23 01:10:00;;;;;;;20.50;10.77;;;5.20;76.90;;;;;;5112549;28;20024;-69
2023/01/23 01:12:26;;;;;;;22.93;11.50;;;5.10;77.00;;;;;;5114177;28;20349;-69
2023/01/23 01:14:52;;;;;;;18.20;10.60;;;5.20;77.00;;;;;;5114229;28;20030;-69
2023/01/23 01:17:17;;;;;;;18.93;11.47;;;5.10;77.00;;;;;;5113823;28;20047;-69
2023/01/23 01:19:43;;;;;;;20.70;11.23;;;5.20;77.10;;;;;;5110085;28;20357;-69
2023/01/23 01:22:09;;;;;;;17.83;10.67;;;5.20;77.10;;;;;;5112564;28;20071;-68
2023/01/23 01:24:35;;;;;;;20.40;11.50;;;5.20;77.10;;;;;;5112077;27;20088;-69
2023/01/23 01:27:00;;;;;;;22.43;11.30;;;5.20;77.10;;;;;;5113630;28;20016;-69
2023/01/23 01:29:26;;;;;;;21.67;11.83;;;5.20;77.10;;;;;;5111496;28;20031;-69
2023/01/23 01:31:52;;;;;;;20.67;12.03;;;5.20;77.20;;;;;;5114279;28;20040;-69
2023/01/23 01:34:18;;;;;;;21.13;11.00;;;5.20;77.20;;;;;;5110765;28;20031;-69
2023/01/23 01:36:44;;;;;;;18.87;11.40;;;5.10;77.20;;;;;;5112552;28;20035;-69
2023/01/23 01:39:09;;;;;;;22.40;11.20;;;5.20;77.20;;;;;;5111101;28;20042;-69
2023/01/23 01:41:35;;;;;;;19.33;11.00;;;5.20;77.30;;;;;;5111183;28;20102;-69
2023/01/23 01:44:01;;;;;;;20.47;10.97;;;5.20;77.20;;;;;;5111234;28;20351;-69
2023/01/23 01:46:29;;;;;;;23.67;11.23;;;5.10;77.30;;;;;;5113294;28;20433;-69
2023/01/23 01:49:09;;;;;;;17.90;10.53;;;5.10;77.30;;;;;;5111260;28;20039;-69
2023/01/23 01:51:40;;;;;;;20.00;11.50;;;5.20;77.40;;;;;;5110325;28;20028;-69
2023/01/23 01:54:09;;;;;;;17.90;10.33;;;5.10;77.40;;;;;;5110959;28;20024;-69
2023/01/23 01:56:44;;;;;;;19.73;11.83;;;5.20;77.40;;;;;;5086180;28;20032;-69
2023/01/23 01:59:11;;;;;;;21.40;11.53;;;5.20;77.50;;;;;;5103458;28;20440;-69
2023/01/23 02:01:39;;;;;;;23.73;11.97;;;5.20;77.40;;;;;;5099725;28;20046;-69
2023/01/23 02:04:06;;;;;;;19.90;10.37;;;5.20;77.50;;;;;;5112045;28;20036;-69
2023/01/23 02:06:32;;;;;;;22.40;12.00;;;5.20;77.40;;;;;;5107304;28;20074;-69
2023/01/23 02:09:25;;;;;;;19.63;11.57;;;5.20;77.50;;;;;;5109288;28;20020;-69
2023/01/23 02:11:51;;;;;;;18.47;10.43;;;5.20;77.50;;;;;;5092022;28;20032;-69
2023/01/23 02:14:19;;;;;;;19.77;10.50;;;5.10;77.50;;;;;;5103087;28;20401;-69
2023/01/23 02:16:49;;;;;;;20.00;11.07;;;5.10;77.50;;;;;;5091539;28;20352;-69
2023/01/23 02:19:38;;;;;;;20.20;12.17;;;5.20;77.60;;;;;;5114462;28;20084;-69
2023/01/23 02:22:31;;;;;;;24.37;12.80;;;5.20;77.60;;;;;;5111705;28;20321;-69
2023/01/23 02:25:28;;;;;;;21.20;11.13;;;5.20;77.50;;;;;;5102589;28;20046;-69
2023/01/23 02:27:54;;;;;;;23.53;11.47;;;5.20;77.50;;;;;;5093360;28;20101;-69
2023/01/23 02:30:20;;;;;;;21.23;11.40;;;5.20;77.50;;;;;;5096352;28;20049;-69
2023/01/23 02:32:47;;;;;;;17.97;11.00;;;5.20;77.60;;;;;;5112945;28;20114;-68
2023/01/23 02:35:24;;;;;;;19.30;11.40;;;5.20;77.60;;;;;;5128365;27;20099;-69
2023/01/23 02:37:53;;;;;;;21.07;12.17;;;5.20;77.60;;;;;;5108680;28;20062;-69
2023/01/23 02:40:28;;;;;;;19.07;11.63;;;5.20;77.70;;;;;;5127687;27;20047;-69
2023/01/23 02:42:55;;;;;;;19.07;11.77;;;5.20;77.60;;;;;;5107856;28;20065;-69
2023/01/23 02:45:22;;;;;;;20.73;11.10;;;5.20;77.70;;;;;;5104395;28;20028;-70
2023/01/23 02:47:49;;;;;;;19.07;11.33;;;5.20;77.60;;;;;;5117298;27;20026;-69
2023/01/23 02:50:15;;;;;;;21.80;12.23;;;5.20;77.70;;;;;;5113697;28;20368;-69
2023/01/23 02:52:41;;;;;;;21.97;11.97;;;5.20;77.70;;;;;;5111083;28;20024;-69
2023/01/23 02:55:07;;;;;;;19.67;11.13;;;5.20;77.70;;;;;;5108000;28;20031;-69
2023/01/23 02:57:33;;;;;;;18.83;11.80;;;5.30;77.80;;;;;;5110748;28;20076;-69
2023/01/23 03:00:15;;;;;;;19.57;11.60;;;5.30;77.80;;;;;;5107889;28;20020;-69
2023/01/23 03:02:41;;;;;;;22.60;10.97;;;5.30;77.80;;;;;;5105006;28;20452;-69
2023/01/23 03:05:09;;;;;;;21.00;11.80;;;5.30;77.80;;;;;;5096100;28;20016;-68
2023/01/23 03:07:35;;;;;;;20.37;11.93;;;5.30;77.80;;;;;;5104312;28;20325;-69
2023/01/23 03:10:03;;;;;;;18.77;11.40;;;5.30;77.80;;;;;;5096676;28;20419;-69
2023/01/23 03:12:29;;;;;;;21.27;11.67;;;5.30;77.80;;;;;;5111904;28;20424;-69
2023/01/23 03:14:55;;;;;;;21.90;12.03;;;5.30;77.80;;;;;;5111193;28;20058;-69
2023/01/23 03:17:22;;;;;;;19.10;11.47;;;5.30;77.80;;;;;;5112062;28;20016;-69
2023/01/23 03:19:48;;;;;;;22.47;12.43;;;5.30;77.80;;;;;;5113423;28;20035;-69
2023/01/23 03:22:14;;;;;;;20.87;11.63;;;5.30;77.80;;;;;;5112320;28;20020;-69
2023/01/23 03:24:40;;;;;;;25.93;12.13;;;5.30;77.90;;;;;;5113312;28;20024;-69
2023/01/23 03:27:06;;;;;;;20.97;12.50;;;5.30;77.90;;;;;;5097309;27;20471;-69
2023/01/23 03:32:24;;;;;;;17.43;10.77;;;5.30;77.90;;;;;;5113995;28;20055;-69
2023/01/23 03:34:52;;;;;;;20.87;12.07;;;5.30;77.90;;;;;;5117411;28;20393;-69
2023/01/23 03:37:19;;;;;;;19.80;11.33;;;5.30;77.90;;;;;;5102935;28;20020;-69
2023/01/23 03:42:33;;;;;;;23.73;13.20;;;5.30;77.90;;;;;;5115746;28;20118;-69
2023/01/23 03:45:00;;;;;;;25.33;13.87;;;5.30;77.90;;;;;;5115384;28;20356;-69
2023/01/23 03:47:29;;;;;;;19.47;12.40;;;5.30;77.90;;;;;;5129162;27;20068;-69
2023/01/23 03:49:55;;;;;;;22.03;12.43;;;5.30;77.90;;;;;;5099788;28;20430;-69
2023/01/23 03:52:21;;;;;;;22.87;11.57;;;5.30;77.90;;;;;;5097572;28;20108;-69
2023/01/23 03:54:47;;;;;;;22.53;12.87;;;5.30;78.00;;;;;;5116477;28;20031;-69
2023/01/23 03:57:13;;;;;;;18.80;11.80;;;5.30;77.90;;;;;;5102293;28;20028;-69
2023/01/23 03:59:59;;;;;;;19.83;11.10;;;5.30;78.00;;;;;;5109797;28;20031;-69
2023/01/23 04:02:28;;;;;;;20.67;11.47;;;5.30;77.90;;;;;;5109704;28;20043;-69
2023/01/23 04:04:55;;;;;;;19.37;11.40;;;5.30;77.90;;;;;;5116555;28;20031;-69
2023/01/23 04:07:21;;;;;;;20.37;11.37;;;5.30;77.90;;;;;;5129913;27;20112;-69
2023/01/23 04:09:48;;;;;;;22.47;13.23;;;5.30;78.00;;;;;;5114043;28;20152;-69
2023/01/23 04:12:14;;;;;;;21.43;12.67;;;5.30;78.00;;;;;;5116603;28;20401;-69
2023/01/23 04:14:43;;;;;;;19.87;11.60;;;5.30;78.00;;;;;;5115064;28;20050;-69
2023/01/23 04:17:11;;;;;;;22.33;12.40;;;5.30;78.00;;;;;;5109334;28;20092;-69
2023/01/23 04:19:37;;;;;;;18.93;12.03;;;5.30;78.00;;;;;;5086057;28;20375;-69
2023/01/23 04:22:03;;;;;;;21.93;12.83;;;5.30;78.00;;;;;;5132289;27;20115;-69
2023/01/23 04:24:35;;;;;;;21.70;11.77;;;5.30;78.00;;;;;;5108774;28;20106;-69
2023/01/23 04:27:01;;;;;;;19.90;12.57;;;5.30;78.00;;;;;;5114068;28;20103;-69
2023/01/23 04:29:27;;;;;;;23.00;12.30;;;5.30;78.00;;;;;;5107767;28;20306;-69
2023/01/23 04:31:53;;;;;;;22.67;12.90;;;5.30;78.10;;;;;;5114264;28;20114;-69
2023/01/23 04:34:19;;;;;;;20.50;12.43;;;5.30;78.10;;;;;;5102972;28;20110;-69
2023/01/23 04:36:47;;;;;;;18.43;11.20;;;5.30;78.10;;;;;;5115614;28;20027;-69
2023/01/23 04:39:12;;;;;;;16.90;10.93;;;5.30;78.20;;;;;;5112727;28;20042;-69
2023/01/23 04:41:42;;;;;;;21.60;11.80;;;5.30;78.10;;;;;;5126682;27;20039;-69
2023/01/23 04:44:19;;;;;;;18.80;12.47;;;5.30;78.10;;;;;;5099079;28;20023;-69
2023/01/23 04:46:59;;;;;;;18.37;11.97;;;5.30;78.10;;;;;;5112469;27;20020;-69
2023/01/23 04:49:27;;;;;;;19.57;11.50;;;5.30;78.10;;;;;;5096710;28;20031;-71
2023/01/23 04:51:53;;;;;;;24.43;12.17;;;5.30;78.10;;;;;;5111235;28;20039;-69
2023/01/23 04:54:22;;;;;;;19.67;11.13;;;5.30;78.10;;;;;;5114929;27;20110;-69
2023/01/23 04:56:48;;;;;;;21.93;12.23;;;5.30;78.10;;;;;;5116593;28;20106;-69
2023/01/23 04:59:16;;;;;;;20.70;11.27;;;5.30;78.20;;;;;;5113190;28;20054;-68
2023/01/23 05:01:44;;;;;;;25.00;12.17;;;5.30;78.20;;;;;;5104964;28;20081;-69
2023/01/23 05:04:11;;;;;;;20.13;12.03;;;5.30;78.20;;;;;;5100642;28;20059;-69
2023/01/23 05:06:37;;;;;;;22.80;12.50;;;5.30;78.20;;;;;;5112741;28;20387;-69
2023/01/23 05:09:04;;;;;;;20.43;11.20;;;5.30;78.20;;;;;;5114451;28;20024;-69
2023/01/23 05:11:38;;;;;;;21.47;12.13;;;5.30;78.20;;;;;;5108322;28;20114;-69
2023/01/23 05:14:04;;;;;;;19.77;11.73;;;5.30;78.20;;;;;;5115528;28;20038;-69
2023/01/23 05:16:31;;;;;;;22.17;11.73;;;5.30;78.20;;;;;;5114035;28;20031;-69
2023/01/23 05:19:15;;;;;;;20.13;12.07;;;5.30;78.20;;;;;;5114123;28;20097;-69
2023/01/23 05:21:42;;;;;;;21.27;11.70;;;5.30;78.20;;;;;;5113396;28;20416;-69
2023/01/23 05:24:12;;;;;;;21.33;11.40;;;5.30;78.20;;;;;;5114944;28;20043;-69
2023/01/23 05:26:38;;;;;;;25.07;13.37;;;5.30;78.30;;;;;;5112457;28;20464;-69
2023/01/23 05:29:04;;;;;;;18.57;11.17;;;5.30;78.30;;;;;;5113120;28;20030;-68
2023/01/23 05:31:31;;;;;;;19.67;11.03;;;5.30;78.20;;;;;;5090139;28;20444;-68
2023/01/23 05:34:20;;;;;;;21.30;11.77;;;5.30;78.30;;;;;;5086453;28;20027;-68
2023/01/23 05:36:46;;;;;;;19.80;12.03;;;5.30;78.30;;;;;;5113443;28;20038;-69
2023/01/23 05:39:13;;;;;;;21.73;11.90;;;5.30;78.40;;;;;;5113506;27;20027;-68
2023/01/23 05:41:39;;;;;;;23.93;12.57;;;5.30;78.30;;;;;;5096326;28;20029;-67
2023/01/23 05:44:24;;;;;;;20.60;12.07;;;5.30;78.30;;;;;;5107485;28;20028;-68
2023/01/23 05:46:54;;;;;;;19.30;11.27;;;5.30;78.40;;;;;;5103695;27;20012;-68
2023/01/23 05:49:20;;;;;;;20.60;12.27;;;5.30;78.40;;;;;;5105870;27;20399;-68
2023/01/23 05:51:46;;;;;;;21.10;11.80;;;5.30;78.40;;;;;;5081979;28;20043;-69
2023/01/23 05:54:12;;;;;;;20.03;11.80;;;5.30;78.40;;;;;;5112456;27;20019;-68
2023/01/23 05:56:42;;;;;;;20.80;11.57;;;5.30;78.40;;;;;;5084326;28;20118;-68
2023/01/23 05:59:26;;;;;;;23.37;12.67;;;5.30;78.40;;;;;;5116359;27;20043;-68
2023/01/23 06:02:15;;;;;;;18.23;11.80;;;5.30;78.40;;;;;;5091666;28;20353;-68
2023/01/23 06:05:00;;;;;;;20.73;11.57;;;5.30;78.40;;;;;;5100946;28;20378;-68
2023/01/23 06:07:39;;;;;;;19.07;11.90;;;5.30;78.40;;;;;;5106831;28;20463;-68
2023/01/23 06:10:08;;;;;;;18.57;12.00;;;5.30;78.40;;;;;;5112235;28;20031;-67
2023/01/23 06:12:33;;;;;;;17.53;11.00;;;5.30;78.50;;;;;;5099150;28;20368;-68
2023/01/23 06:14:59;;;;;;;20.30;12.03;;;5.30;78.40;;;;;;5111167;28;20031;-68
2023/01/23 06:17:25;;;;;;;17.20;10.77;;;5.30;78.40;;;;;;5107508;28;20019;-68
2023/01/23 06:19:52;;;;;;;18.83;11.63;;;5.30;78.40;;;;;;5112366;28;20020;-69
2023/01/23 06:22:17;;;;;;;21.03;12.00;;;5.30;78.50;;;;;;5095161;28;20498;-68
2023/01/23 06:25:06;;;;;;;17.90;11.57;;;5.30;78.50;;;;;;5096423;28;20024;-69
2023/01/23 06:27:32;;;;;;;22.20;11.90;;;5.30;78.50;;;;;;5112609;28;20019;-69
2023/01/23 06:30:01;;;;;;;20.57;12.13;;;5.30;78.40;;;;;;5108891;28;20027;-69
2023/01/23 06:32:27;;;;;;;21.63;12.10;;;5.30;78.50;;;;;;5114260;28;20024;-69
2023/01/23 06:34:53;;;;;;;27.87;11.83;;;5.30;78.50;;;;;;5114000;28;20028;-69
2023/01/23 06:37:19;;;;;;;21.57;12.00;;;5.30;78.50;;;;;;5113179;28;20027;-69
2023/01/23 06:39:45;;;;;;;23.87;13.60;;;5.30;78.50;;;;;;5112916;28;20059;-70
2023/01/23 06:42:13;;;;;;;20.13;13.07;;;5.30;79.20;;;;;;5106758;28;20019;-69
2023/01/23 06:44:44;;;;;;;19.73;12.00;;;5.30;78.70;;;;;;5114676;28;20047;-69
2023/01/23 06:47:12;;;;;;;18.27;11.83;;;5.30;78.50;;;;;;5102706;28;20111;-69
2023/01/23 06:49:39;;;;;;;22.53;12.93;;;5.30;78.60;;;;;;5097302;28;20023;-69
2023/01/23 06:52:05;;;;;;;22.70;13.37;;;5.30;78.60;;;;;;5106593;28;20028;-69
2023/01/23 06:54:31;;;;;;;24.50;13.40;;;5.30;78.50;;;;;;5113738;28;20080;-69
2023/01/23 06:57:00;;;;;;;25.00;13.60;;;5.30;78.50;;;;;;5100802;28;20119;-69
2023/01/23 06:59:26;;;;;;;21.33;12.80;;;5.30;78.50;;;;;;5128416;27;20080;-69
2023/01/23 07:01:52;;;;;;;19.67;11.87;;;5.40;78.60;;;;;;5097870;28;20187;-69
2023/01/23 07:04:22;;;;;;;22.83;13.33;;;5.40;78.60;;;;;;5108572;28;20486;-69
2023/01/23 07:06:49;;;;;;;22.97;12.77;;;5.40;78.60;;;;;;5112481;28;20473;-69
2023/01/23 07:09:17;;;;;;;19.47;12.23;;;5.30;78.50;;;;;;5106153;28;20024;-69
2023/01/23 07:11:49;;;;;;;23.70;12.93;;;5.40;78.60;;;;;;5122688;28;20452;-69
2023/01/23 07:14:15;;;;;;;20.00;12.73;;;5.40;78.60;;;;;;5109976;28;20024;-68
2023/01/23 07:16:43;;;;;;;20.60;12.17;;;5.40;78.60;;;;;;5110558;28;20136;-69
2023/01/23 07:19:09;;;;;;;21.20;11.80;;;5.40;78.50;;;;;;5111382;28;20484;-70
2023/01/23 07:21:38;;;;;;;22.10;12.97;;;5.50;78.50;;;;;;5112582;28;20027;-69
2023/01/23 07:24:04;;;;;;;21.03;13.30;;;5.50;78.40;;;;;;5099855;28;20031;-70
2023/01/23 07:26:31;;;;;;;21.60;12.83;;;5.50;78.40;;;;;;5111266;28;20399;-73
2023/01/23 07:28:57;;;;;;;22.97;12.50;;;5.50;78.40;;;;;;5095890;28;20032;-71
2023/01/23 07:31:23;;;;;;;22.10;13.13;;;5.40;78.40;;;;;;5122975;28;20024;-71
2023/01/23 07:33:48;;;;;;;19.23;12.30;;;5.50;78.50;;;;;;5110147;28;20095;-70
2023/01/23 07:36:17;;;;;;;21.10;13.00;;;5.40;78.50;;;;;;5111571;28;20043;-70
2023/01/23 07:38:43;;;;;;;20.63;12.43;;;5.40;78.50;;;;;;5111655;28;20027;-70
2023/01/23 07:41:09;;;;;;;21.83;12.77;;;5.40;78.50;;;;;;5092016;28;20036;-70
2023/01/23 07:43:34;;;;;;;18.97;12.20;;;5.40;78.50;;;;;;5105297;28;20127;-72
2023/01/23 07:46:01;;;;;;;18.27;11.57;;;5.50;78.50;;;;;;5106179;28;20061;-71
2023/01/23 07:48:28;;;;;;;22.30;12.50;;;5.40;78.50;;;;;;5109355;28;20107;-70
2023/01/23 07:50:54;;;;;;;17.50;11.43;;;5.50;78.50;;;;;;5103636;28;20027;-71
2023/01/23 07:53:20;;;;;;;19.47;11.73;;;5.50;78.50;;;;;;5112639;28;20051;-70
2023/01/23 07:55:46;;;;;;;19.63;12.40;;;5.50;78.50;;;;;;5104014;28;20065;-70
2023/01/23 07:58:12;;;;;;;20.07;12.63;;;5.50;78.50;;;;;;5110587;28;20149;-69
2023/01/23 08:00:38;;;;;;;19.70;12.10;;;5.50;78.50;;;;;;5102149;28;20031;-69
2023/01/23 08:03:03;;;;;;;20.37;12.43;;;5.50;78.50;;;;;;5111135;28;20074;-69
2023/01/23 08:05:30;;;;;;;19.90;12.47;;;5.50;78.50;;;;;;5108935;28;20447;-68
2023/01/23 08:07:56;;;;;;;20.97;11.83;;;5.50;79.10;;;;;;5107960;28;20329;-68
2023/01/23 08:10:22;;;;;;;19.67;12.03;;;5.50;78.50;;;;;;5089219;28;20103;-69
2023/01/23 08:12:48;;;;;;;19.33;11.30;;;5.50;78.50;;;;;;5112701;28;20394;-68
2023/01/23 08:15:13;;;;;;;23.40;12.33;;;5.50;78.50;;;;;;5097158;27;20391;-67
2023/01/23 08:17:39;;;;;;;20.57;12.80;;;5.50;78.40;;;;;;5112773;28;20477;-67
2023/01/23 08:20:05;;;;;;;18.77;10.90;;;5.50;78.40;;;;;;5095799;28;20372;-67
2023/01/23 08:22:32;;;;;;;19.27;11.67;;;5.60;78.40;;;;;;5116906;28;20028;-67
2023/01/23 08:24:57;;;;;;;21.07;12.53;;;5.60;78.40;;;;;;5098194;28;20168;-66
2023/01/23 08:27:23;;;;;;;20.27;12.23;;;5.60;78.40;;;;;;5113479;28;20106;-68
2023/01/23 08:29:49;;;;;;;20.87;11.50;;;5.60;78.40;;;;;;5114597;28;20108;-67
2023/01/23 08:32:15;;;;;;;18.40;11.47;;;5.60;78.40;;;;;;5114678;28;20053;-68
2023/01/23 08:34:40;;;;;;;19.47;12.67;;;5.60;78.30;;;;;;5106304;28;20039;-68
2023/01/23 08:37:06;;;;;;;18.80;11.93;;;5.60;78.30;;;;;;5111396;28;20032;-67
2023/01/23 08:39:32;;;;;;;19.60;12.27;;;5.60;78.20;;;;;;5113055;28;20035;-67
2023/01/23 08:41:58;;;;;;;21.33;12.47;;;5.60;78.20;;;;;;5113345;28;20059;-68
2023/01/23 08:44:23;;;;;;;19.43;11.77;;;5.70;78.20;;;;;;5115589;28;20103;-66
2023/01/23 08:46:49;;;;;;;21.63;12.43;;;5.60;78.20;;;;;;5109301;28;20486;-67
2023/01/23 08:49:18;;;;;;;21.00;12.23;;;5.70;78.20;;;;;;5112628;28;20034;-69
2023/01/23 08:51:44;;;;;;;19.37;11.47;;;5.70;78.20;;;;;;5094919;28;20436;-67
2023/01/23 08:54:09;;;;;;;18.87;11.40;;;5.70;78.20;;;;;;5111230;28;20047;-67
2023/01/23 08:56:35;;;;;;;18.87;11.50;;;5.70;78.20;;;;;;5115605;27;20032;-67
2023/01/23 08:59:01;;;;;;;19.57;10.73;;;5.70;78.20;;;;;;5110243;28;20055;-68
2023/01/23 09:01:27;;;;;;;19.90;11.40;;;5.80;78.20;;;;;;5112225;28;20391;-68
2023/01/23 09:03:52;;;;;;;18.40;11.90;;;5.80;78.10;;;;;;5111505;28;20027;-71
2023/01/23 09:06:21;;;;;;;20.33;12.37;;;5.80;78.10;;;;;;5101440;28;20023;-71
2023/01/23 09:08:47;;;;;;;21.43;12.03;;;5.80;78.10;;;;;;5112108;27;20149;-71
2023/01/23 09:11:15;;;;;;;19.07;12.43;;;5.80;78.00;;;;;;5095121;27;20102;-71
2023/01/23 09:13:40;;;;;;;19.57;12.17;;;5.80;78.00;;;;;;5111952;27;20123;-71
2023/01/23 09:16:07;;;;;;;21.27;12.07;;;5.80;78.00;;;;;;5110593;27;20122;-72
2023/01/23 09:18:33;;;;;;;20.23;11.47;;;5.90;78.10;;;;;;5113358;27;20019;-72
2023/01/23 09:20:59;;;;;;;19.50;11.87;;;5.90;78.00;;;;;;5111051;27;20016;-71
2023/01/23 09:23:25;;;;;;;20.00;11.67;;;5.90;78.00;;;;;;5109134;27;20024;-71
2023/01/23 09:25:50;;;;;;;19.23;11.40;;;5.90;78.00;;;;;;5110427;28;20110;-71
2023/01/23 09:28:17;;;;;;;21.97;12.27;;;5.90;77.90;;;;;;5107869;28;20036;-72
2023/01/23 09:30:43;;;;;;;18.80;11.27;;;5.90;77.90;;;;;;5095771;28;20032;-71
2023/01/23 09:33:09;;;;;;;22.83;12.37;;;6.00;77.90;;;;;;5081769;28;20457;-71
2023/01/23 09:35:34;;;;;;;20.57;12.70;;;6.00;77.90;;;;;;5117519;27;20050;-72
2023/01/23 09:38:05;;;;;;;20.43;11.93;;;6.00;77.90;;;;;;5101560;28;20035;-72
2023/01/23 09:40:31;;;;;;;21.13;12.10;;;6.00;77.90;;;;;;5102231;28;20506;-71
2023/01/23 09:43:41;;;;;;;18.40;12.03;;;6.10;77.80;;;;;;5095367;28;20035;-72
2023/01/23 09:46:10;;;;;;;21.63;11.67;;;6.10;77.70;;;;;;5088254;28;20044;-72
2023/01/23 09:49:23;;;;;;;19.17;12.20;;;6.10;77.70;;;;;;5074708;28;20031;-72
2023/01/23 09:51:55;;;;;;;21.23;11.70;;;6.20;77.60;;;;;;5081706;28;20036;-70
2023/01/23 09:54:42;;;;;;;20.27;11.03;;;6.20;77.60;;;;;;5072022;28;20200;-71
2023/01/23 09:57:18;;;;;;;20.70;11.57;;;6.20;77.60;;;;;;5076369;28;20029;-71
2023/01/23 10:00:21;;;;;;;20.43;11.93;;;6.20;77.50;;;;;;5069254;28;20031;-71
2023/01/23 10:02:48;;;;;;;21.93;11.43;;;6.20;77.60;;;;;;5079052;28;20052;-70
2023/01/23 10:05:16;;;;;;;18.33;11.60;;;6.20;77.60;;;;;;5093074;28;20030;-70
2023/01/23 10:07:49;;;;;;;18.30;10.90;;;6.20;77.50;;;;;;5093794;28;20024;-70
2023/01/23 10:10:23;;;;;;;20.50;11.57;;;6.20;77.50;;;;;;5092271;28;20020;-70
2023/01/23 10:13:15;;;;;;;19.27;10.70;;;6.20;77.40;;;;;;5093799;28;20093;-70
2023/01/23 10:15:50;;;;;;;;;;;6.20;77.40;;;;;;5094012;28;20093;-70
2023/01/23 10:18:34;;;;;;;18.90;10.73;;;6.20;77.40;;;;;;5129664;27;19912;-70
2023/01/23 10:21:05;;;;;;;21.33;10.47;;;6.30;77.30;;;;;;5104102;28;20031;-70
2023/01/23 10:23:37;;;;;;;18.63;10.70;;;6.20;77.20;;;;;;5114260;28;20020;-70
2023/01/23 10:26:03;;;;;;;18.38;11.88;;;6.30;77.30;;;;;;5115313;28;20027;-70
2023/01/23 10:28:37;;;;;;;21.57;12.17;;;6.30;77.20;;;;;;5114141;28;20035;-70
2023/01/23 10:31:34;;;;;;;20.27;11.07;;;6.20;77.20;;;;;;5099397;28;20059;-70
2023/01/23 10:34:19;;;;;;;22.57;11.60;;;6.30;77.20;;;;;;5114534;28;20035;-70
2023/01/23 10:36:59;;;;;;;17.67;11.53;;;6.30;77.20;;;;;;5094600;28;20433;-70
2023/01/23 10:39:57;;;;;;;18.60;11.90;;;6.30;77.10;;;;;;5099343;28;20077;-69
2023/01/23 10:42:25;;;;;;;19.90;11.60;;;6.40;77.10;;;;;;5085516;28;20075;-70
2023/01/23 10:44:51;;;;;;;20.53;11.63;;;6.40;77.10;;;;;;5093393;28;20028;-69
2023/01/23 10:47:24;;;;;;;22.73;13.00;;;6.40;77.00;;;;;;5113786;28;20023;-70
2023/01/23 10:49:51;;;;;;;19.23;12.30;;;6.40;76.90;;;;;;5114229;28;20032;-70
2023/01/23 10:52:37;;;;;;;21.00;12.33;;;6.50;76.80;;;;;;5109728;28;20101;-70
2023/01/23 10:55:08;;;;;;;19.17;11.43;;;6.50;76.70;;;;;;5112852;28;20019;-70
2023/01/23 10:57:47;;;;;;;20.95;12.70;;;6.60;76.60;;;;;;5112601;28;20445;-70
2023/01/23 11:00:37;;;;;;;20.70;12.63;;;6.60;76.50;;;;;;5111319;28;20016;-70
2023/01/23 11:03:19;;;;;;;21.17;13.07;;;6.60;76.50;;;;;;5108446;28;20024;-70
2023/01/23 11:06:05;;;;;;;21.27;13.48;;;6.60;76.50;;;;;;5111166;28;20042;-70
2023/01/23 11:08:56;;;;;;;22.40;12.07;;;6.60;76.50;;;;;;5112279;28;20058;-70
2023/01/23 11:11:25;;;;;;;20.43;12.57;;;6.70;76.40;;;;;;5106152;28;20073;-70
2023/01/23 11:14:11;;;;;;;20.13;12.77;;;6.70;76.40;;;;;;5110377;28;20076;-70
2023/01/23 11:16:38;;;;;;;23.13;13.73;;;6.70;76.20;;;;;;5112168;28;20062;-70
2023/01/23 11:19:06;;;;;;;21.33;14.27;;;6.70;76.30;;;;;;5113506;28;20032;-70
2023/01/23 11:21:36;;;;;;;21.07;13.03;;;6.70;76.10;;;;;;5112559;28;20463;-69
2023/01/23 11:24:23;;;;;;;23.53;15.00;;;6.80;76.10;;;;;;5110892;28;20020;-70
2023/01/23 11:27:14;;;;;;;21.57;13.63;;;6.80;76.00;;;;;;5107712;28;20051;-71
2023/01/23 11:30:02;;;;;;;21.90;13.47;;;6.80;75.90;;;;;;5112421;28;20016;-71
2023/01/23 11:32:32;;;;;;;24.83;13.67;;;6.80;75.80;;;;;;5111608;27;20031;-71
2023/01/23 11:35:15;;;;;;;20.37;13.37;;;6.80;75.80;;;;;;5094221;28;20482;-71
2023/01/23 11:37:41;;;;;;;20.73;13.60;;;6.90;75.70;;;;;;5113956;28;20099;-71
2023/01/23 11:40:13;;;;;;;22.27;12.80;;;6.90;75.70;;;;;;5110377;28;20043;-71
2023/01/23 11:42:41;;;;;;;20.27;12.70;;;6.90;75.70;;;;;;5107641;28;20130;-71
2023/01/23 11:45:22;;;;;;;21.10;13.07;;;6.90;75.70;;;;;;5108036;28;20023;-71
2023/01/23 11:48:36;;;;;;;20.40;13.03;;;6.90;75.60;;;;;;5078880;28;20020;-72
2023/01/23 11:51:36;;;;;;;19.90;11.60;;;6.90;75.60;;;;;;5103574;27;20059;-71
2023/01/23 11:54:15;;;;;;;21.37;12.53;;;6.90;75.50;;;;;;5115794;27;20360;-71
2023/01/23 11:57:02;;;;;;;21.90;12.57;;;6.90;75.60;;;;;;5111191;27;20088;-71
2023/01/23 12:00:13;;;;;;;19.33;12.00;;;6.80;75.50;;;;;;5113668;27;20038;-71
2023/01/23 12:03:10;;;;;;;21.38;11.93;;;6.80;75.40;;;;;;4997062;28;20041;-71
2023/01/23 12:05:53;;;;;;;20.10;11.97;;;6.70;75.50;;;;;;5033654;28;20507;-71
2023/01/23 12:08:27;;;;;;;20.67;12.03;;;6.70;75.60;;;;;;5016401;28;20052;-71
2023/01/23 12:11:24;;;;;;;18.27;12.00;;;6.70;75.60;;;;;;5016116;28;20213;-72
2023/01/23 12:14:19;;;;;;;19.27;12.50;;;6.80;75.60;;;;;;4983337;28;20054;-71
2023/01/23 12:16:48;;;;;;;20.03;12.37;;;6.80;75.50;;;;;;5015971;28;20045;-70
2023/01/23 12:19:40;;;;;;;18.00;11.90;;;6.80;75.40;;;;;;5017592;28;20120;-70
2023/01/23 12:22:21;;;;;;;18.43;12.13;;;6.80;75.30;;;;;;5031521;28;20041;-70
2023/01/23 12:25:09;;;;;;;16.63;10.93;;;6.80;75.20;;;;;;5016015;28;20026;-70
2023/01/23 12:27:45;;;;;;;18.63;11.97;;;6.80;75.20;;;;;;5021129;28;20456;-70
2023/01/23 12:30:37;;;;;;;19.27;11.70;;;6.80;75.20;;;;;;5017290;28;20528;-71
2023/01/23 12:33:13;;;;;;;19.10;12.33;;;6.80;75.10;;;;;;5047550;28;20046;-71
2023/01/23 12:35:49;;;;;;;19.57;12.20;;;6.90;75.00;;;;;;5115957;28;20097;-71
2023/01/23 12:38:34;;;;;;;21.27;13.07;;;6.90;75.00;;;;;;5106779;28;20111;-71
2023/01/23 12:41:25;;;;;;;22.03;13.03;;;6.90;74.80;;;;;;5091630;28;20052;-71
2023/01/23 12:44:00;;;;;;;18.57;12.30;;;6.90;74.70;;;;;;5116756;28;20063;-70
2023/01/23 12:46:35;;;;;;;20.13;12.70;;;6.90;74.70;;;;;;5114936;28;20054;-72
2023/01/23 12:49:08;;;;;;;22.90;13.30;;;6.90;74.60;;;;;;5114855;28;20084;-71
2023/01/23 12:51:42;;;;;;;21.30;14.23;;;7.00;74.70;;;;;;5096872;28;20031;-72
2023/01/23 12:54:16;;;;;;;19.47;12.90;;;7.00;74.60;;;;;;5115764;28;20020;-71
2023/01/23 12:56:43;;;;;;;19.70;12.00;;;7.00;74.60;;;;;;5112675;28;20696;-71
2023/01/23 12:59:30;;;;;;;20.67;13.37;;;7.00;74.60;;;;;;5112598;28;20024;-72
2023/01/23 13:02:02;;;;;;;20.93;12.53;;;7.00;74.50;;;;;;5103629;28;20485;-70
2023/01/23 13:04:35;;;;;;;19.73;12.27;;;7.00;74.40;;;;;;5096664;28;20028;-69